ADDS METAR Data INFO
IDs: Format: Raw Decoded Include TAF

Data at: 1206 UTC 24 Feb 2018

KSUA 241147Z 12008KT 7SM FEW 23/19 A3024

KSUA 241125Z 2412/2512 12008KT P6SM SCT025 SCT060
  FM241500 12012KT P6SM SCT035
  FM250000 13007KT P6SM FEW040